createdAt,value
2017-11-29T00:02:07.212Z,12.33
2017-11-29T00:04:34.919Z,12.30
2017-11-29T00:07:02.615Z,11.37
2017-11-29T00:09:30.295Z,14.48
2017-11-29T00:11:57.923Z,11.57
2017-11-29T00:14:25.673Z,13.10
2017-11-29T00:16:53.354Z,12.90
2017-11-29T00:19:21.031Z,12.63
2017-11-29T00:21:51.115Z,13.65
2017-11-29T00:24:18.874Z,13.10
2017-11-29T00:26:46.869Z,12.60
2017-11-29T00:29:14.505Z,12.03
2017-11-29T00:31:42.132Z,14.30
2017-11-29T00:34:09.805Z,14.13
2017-11-29T00:36:37.488Z,14.82
2017-11-29T00:39:05.368Z,14.35
2017-11-29T00:41:33.042Z,13.77
2017-11-29T00:44:00.730Z,13.97
2017-11-29T00:46:28.348Z,13.82
2017-11-29T00:48:56.041Z,13.83
2017-11-29T00:51:23.693Z,14.30
2017-11-29T00:53:51.375Z,16.27
2017-11-29T00:56:19.051Z,15.23
2017-11-29T00:58:46.703Z,15.67
2017-11-29T01:01:14.354Z,14.75
2017-11-29T01:03:42.780Z,15.07
2017-11-29T01:06:10.395Z,14.30
2017-11-29T01:08:38.198Z,15.20
2017-11-29T01:11:05.976Z,14.87
2017-11-29T01:13:33.642Z,14.43
2017-11-29T01:16:01.294Z,16.43
2017-11-29T01:18:28.958Z,15.57
2017-11-29T01:20:57.138Z,17.10
2017-11-29T01:23:24.799Z,18.05
2017-11-29T01:25:52.411Z,17.70
2017-11-29T01:28:20.091Z,16.50
2017-11-29T01:30:48.300Z,17.23
2017-11-29T01:33:16.075Z,17.98
2017-11-29T01:35:43.760Z,17.57
2017-11-29T01:38:11.431Z,18.48
2017-11-29T01:40:39.139Z,16.80
2017-11-29T01:43:06.807Z,18.60
2017-11-29T01:45:34.463Z,18.10
2017-11-29T01:48:02.431Z,16.87
2017-11-29T01:50:30.082Z,17.40
2017-11-29T01:52:57.736Z,20.27
2017-11-29T01:55:25.396Z,18.23
2017-11-29T01:57:53.052Z,17.03
2017-11-29T02:00:20.924Z,18.13
2017-11-29T02:02:48.687Z,19.03
2017-11-29T02:05:16.346Z,20.00
2017-11-29T02:07:44.213Z,22.03
2017-11-29T02:10:11.834Z,19.27
2017-11-29T02:12:39.505Z,19.27
2017-11-29T02:15:07.203Z,17.30
2017-11-29T02:17:34.821Z,18.10
2017-11-29T02:20:02.528Z,18.73
2017-11-29T02:22:30.959Z,18.30
2017-11-29T02:24:58.698Z,19.98
2017-11-29T02:27:26.405Z,18.90
2017-11-29T02:29:54.092Z,19.23
2017-11-29T02:32:21.790Z,19.50
2017-11-29T02:34:49.489Z,21.00
2017-11-29T02:37:17.198Z,21.13
2017-11-29T02:39:56.798Z,19.17
2017-11-29T02:42:36.289Z,20.57
2017-11-29T02:45:04.009Z,18.70
2017-11-29T02:47:31.719Z,18.55
2017-11-29T02:49:59.666Z,18.47
2017-11-29T02:52:28.103Z,19.97
2017-11-29T02:54:55.819Z,18.77
2017-11-29T02:57:23.467Z,18.90
2017-11-29T02:59:51.940Z,15.70
2017-11-29T03:02:19.595Z,18.00
2017-11-29T03:04:47.947Z,18.65
2017-11-29T03:07:15.706Z,21.52
2017-11-29T03:09:43.334Z,19.58
2017-11-29T03:12:10.947Z,20.67
2017-11-29T03:14:38.780Z,19.98
2017-11-29T03:17:06.427Z,18.85
2017-11-29T03:19:34.214Z,19.58
2017-11-29T03:22:02.046Z,19.83
2017-11-29T03:24:29.654Z,19.30
2017-11-29T03:26:57.275Z,19.97
2017-11-29T03:29:24.930Z,21.33
2017-11-29T03:31:52.551Z,19.77
2017-11-29T03:34:20.227Z,21.73
2017-11-29T03:36:47.846Z,22.62
2017-11-29T03:39:15.497Z,19.67
2017-11-29T03:41:43.114Z,21.00
2017-11-29T03:44:11.010Z,21.20
2017-11-29T03:46:38.643Z,19.77
2017-11-29T03:49:06.331Z,22.80
2017-11-29T03:51:34.006Z,23.40
2017-11-29T03:54:01.623Z,23.90
2017-11-29T03:56:29.313Z,24.07
2017-11-29T03:58:57.222Z,22.97
2017-11-29T04:01:25.607Z,21.87
2017-11-29T04:03:54.256Z,23.03
2017-11-29T04:06:21.871Z,22.65
2017-11-29T04:08:49.570Z,22.10
2017-11-29T04:11:17.297Z,22.53
2017-11-29T04:13:44.966Z,22.90
2017-11-29T04:16:12.598Z,20.20
2017-11-29T04:18:40.527Z,18.23
2017-11-29T04:21:08.228Z,20.80
2017-11-29T04:23:35.935Z,21.12
2017-11-29T04:26:03.593Z,21.27
2017-11-29T04:28:31.286Z,20.57
2017-11-29T04:30:58.903Z,20.33
2017-11-29T04:33:26.600Z,19.67
2017-11-29T04:35:54.237Z,19.70
2017-11-29T04:38:22.044Z,18.50
2017-11-29T04:40:50.470Z,20.10
2017-11-29T04:43:18.119Z,18.40
2017-11-29T04:45:46.002Z,19.10
2017-11-29T04:48:13.680Z,20.60
2017-11-29T04:50:41.343Z,20.08
2017-11-29T04:53:09.032Z,19.98
2017-11-29T04:55:36.966Z,20.80
2017-11-29T04:58:04.818Z,23.13
2017-11-29T05:00:32.519Z,18.73
2017-11-29T05:03:00.976Z,21.33
2017-11-29T05:05:28.654Z,20.50
2017-11-29T05:07:56.367Z,19.50
2017-11-29T05:10:24.050Z,20.08
2017-11-29T05:12:51.720Z,19.42
2017-11-29T05:15:19.426Z,21.15
2017-11-29T05:17:47.236Z,21.95
2017-11-29T05:20:14.894Z,21.75
2017-11-29T05:22:42.602Z,20.65
2017-11-29T05:25:10.279Z,20.73
2017-11-29T05:27:38.191Z,20.83
2017-11-29T05:30:05.939Z,21.87
2017-11-29T05:32:33.809Z,22.50
2017-11-29T05:35:02.306Z,21.77
2017-11-29T05:37:32.094Z,21.00
2017-11-29T05:40:00.998Z,21.42
2017-11-29T05:42:35.565Z,21.70
2017-11-29T05:45:04.248Z,21.70
2017-11-29T05:47:32.761Z,22.97
2017-11-29T05:50:00.682Z,22.47
2017-11-29T05:52:29.179Z,24.17
2017-11-29T05:54:56.895Z,21.03
2017-11-29T05:57:24.865Z,22.00
2017-11-29T05:59:52.615Z,23.17
2017-11-29T06:02:20.473Z,24.20
2017-11-29T06:04:48.357Z,22.33
2017-11-29T06:07:16.431Z,23.58
2017-11-29T06:09:44.113Z,21.45
2017-11-29T06:12:11.844Z,22.13
2017-11-29T06:14:39.595Z,24.13
2017-11-29T06:17:07.680Z,22.05
2017-11-29T06:19:35.738Z,22.23
2017-11-29T06:22:03.426Z,23.90
2017-11-29T06:24:31.106Z,21.92
2017-11-29T06:26:58.938Z,21.00
2017-11-29T06:29:26.575Z,22.10
2017-11-29T06:31:54.465Z,21.30
2017-11-29T06:34:22.107Z,21.52
2017-11-29T06:36:50.077Z,22.27
2017-11-29T06:39:17.837Z,23.63
2017-11-29T06:41:45.447Z,20.50
2017-11-29T06:44:13.125Z,23.20
2017-11-29T06:46:40.754Z,24.87
2017-11-29T06:49:08.583Z,24.70
2017-11-29T06:51:36.263Z,25.40
2017-11-29T06:54:04.109Z,25.77
2017-11-29T06:56:31.798Z,23.90
2017-11-29T06:59:00.400Z,24.90
2017-11-29T07:01:29.616Z,23.95
2017-11-29T07:03:57.429Z,23.52
2017-11-29T07:06:25.503Z,24.17
2017-11-29T07:08:53.567Z,24.67
2017-11-29T07:11:21.197Z,25.43
2017-11-29T07:13:49.195Z,23.70
2017-11-29T07:16:16.819Z,24.27
2017-11-29T07:18:44.645Z,23.52
2017-11-29T07:21:12.334Z,23.73
2017-11-29T07:23:39.965Z,24.58
2017-11-29T07:26:08.530Z,24.90
2017-11-29T07:28:36.189Z,24.15
2017-11-29T07:31:03.851Z,24.17
2017-11-29T07:33:32.300Z,24.33
2017-11-29T07:36:00.196Z,22.53
2017-11-29T07:38:27.862Z,24.17
2017-11-29T07:40:55.488Z,25.80
2017-11-29T07:43:23.147Z,25.97
2017-11-29T07:45:50.935Z,25.07
2017-11-29T07:48:18.694Z,24.40
2017-11-29T07:50:46.322Z,24.03
2017-11-29T07:53:13.989Z,25.07
2017-11-29T07:55:42.662Z,25.50
2017-11-29T07:58:10.447Z,23.30
2017-11-29T08:00:38.214Z,23.90
2017-11-29T08:03:05.888Z,23.73
2017-11-29T08:05:33.511Z,24.30
2017-11-29T08:08:01.419Z,23.53
2017-11-29T08:10:29.104Z,25.12
2017-11-29T08:12:57.440Z,24.07
2017-11-29T08:15:25.099Z,24.77
2017-11-29T08:17:52.742Z,25.30
2017-11-29T08:20:20.621Z,23.85
2017-11-29T08:22:48.234Z,24.45
2017-11-29T08:25:15.875Z,26.03
2017-11-29T08:27:43.582Z,25.25
2017-11-29T08:30:11.362Z,26.00
2017-11-29T08:32:39.198Z,25.80
2017-11-29T08:35:06.890Z,26.03
2017-11-29T08:37:34.652Z,25.98
2017-11-29T08:40:02.370Z,25.10
2017-11-29T08:42:30.094Z,26.40
2017-11-29T08:44:57.818Z,25.47
2017-11-29T08:47:25.497Z,24.58
2017-11-29T08:49:53.226Z,25.47
2017-11-29T08:52:20.941Z,25.67
2017-11-29T08:54:49.586Z,24.75
2017-11-29T08:57:17.591Z,25.97
2017-11-29T08:59:45.326Z,25.27
2017-11-29T09:02:12.971Z,26.27
2017-11-29T09:04:40.635Z,24.60
2017-11-29T09:07:08.336Z,28.00
2017-11-29T09:09:36.030Z,23.90
2017-11-29T09:12:03.692Z,26.98
2017-11-29T09:14:31.620Z,27.97
2017-11-29T09:16:59.289Z,26.25
2017-11-29T09:19:28.497Z,27.15
2017-11-29T09:21:56.167Z,28.12
2017-11-29T09:24:24.707Z,27.17
2017-11-29T09:26:52.419Z,28.00
2017-11-29T09:29:20.357Z,26.70
2017-11-29T09:31:48.023Z,27.07
2017-11-29T09:34:16.340Z,27.67
2017-11-29T09:36:44.184Z,27.90
2017-11-29T09:39:11.844Z,26.37
2017-11-29T09:41:39.861Z,27.75
2017-11-29T09:44:07.874Z,26.85
2017-11-29T09:46:36.536Z,27.40
2017-11-29T09:49:04.299Z,24.73
2017-11-29T09:51:31.960Z,25.57
2017-11-29T09:53:59.679Z,27.08
2017-11-29T09:56:27.343Z,25.30
2017-11-29T09:58:55.067Z,21.63
2017-11-29T10:01:23.724Z,23.33
2017-11-29T10:03:52.068Z,23.40
2017-11-29T10:06:20.434Z,23.10
2017-11-29T10:08:48.941Z,22.90
2017-11-29T10:11:17.367Z,21.40
2017-11-29T10:13:45.027Z,20.57
2017-11-29T10:16:13.499Z,22.10
2017-11-29T10:18:41.440Z,23.90
2017-11-29T10:21:09.133Z,27.00
2017-11-29T10:23:36.791Z,24.98
2017-11-29T10:26:04.490Z,26.83
2017-11-29T10:28:32.186Z,26.30
2017-11-29T10:30:59.900Z,27.23
2017-11-29T10:33:27.568Z,25.77
2017-11-29T10:35:55.287Z,26.30
2017-11-29T10:38:22.962Z,27.95
2017-11-29T10:40:51.384Z,27.50
2017-11-29T10:43:19.116Z,25.33
2017-11-29T10:45:46.769Z,25.33
2017-11-29T10:48:14.483Z,23.57
2017-11-29T10:50:42.146Z,26.98
2017-11-29T10:53:10.118Z,24.33
2017-11-29T10:55:37.822Z,23.58
2017-11-29T10:58:05.533Z,23.33
2017-11-29T11:00:33.187Z,23.00
2017-11-29T11:03:00.866Z,23.73
2017-11-29T11:05:28.563Z,22.67
2017-11-29T11:07:56.218Z,24.70
2017-11-29T11:10:23.923Z,24.77
2017-11-29T11:12:51.696Z,21.93
2017-11-29T11:15:19.411Z,21.93
2017-11-29T11:17:47.891Z,24.15
2017-11-29T11:20:16.238Z,24.05
2017-11-29T11:22:43.973Z,23.90
2017-11-29T11:25:11.702Z,24.00
2017-11-29T11:27:39.387Z,25.12
2017-11-29T11:30:07.081Z,22.77
2017-11-29T11:32:34.939Z,23.60
2017-11-29T11:35:02.626Z,25.00
2017-11-29T11:37:30.344Z,24.40
2017-11-29T11:39:58.012Z,25.80
2017-11-29T11:42:25.708Z,25.23
2017-11-29T11:44:54.186Z,23.60
2017-11-29T11:47:21.914Z,21.50
2017-11-29T11:49:49.587Z,22.47
2017-11-29T11:52:17.561Z,24.43
2017-11-29T11:54:45.302Z,22.30
2017-11-29T11:57:12.979Z,25.77
2017-11-29T11:59:40.640Z,22.73
2017-11-29T12:02:08.448Z,23.87
2017-11-29T12:04:36.931Z,23.85
2017-11-29T12:07:04.629Z,25.50
2017-11-29T12:09:32.352Z,23.10
2017-11-29T12:12:00.257Z,23.52
2017-11-29T12:14:28.239Z,22.60
2017-11-29T12:16:55.894Z,21.75
2017-11-29T12:19:23.607Z,23.40
2017-11-29T12:21:51.268Z,23.30
2017-11-29T12:24:18.975Z,22.37
2017-11-29T12:26:46.640Z,24.37
2017-11-29T12:29:14.349Z,21.80
2017-11-29T12:31:42.728Z,21.47
2017-11-29T12:34:10.398Z,22.23
2017-11-29T12:36:38.501Z,21.65
2017-11-29T12:39:06.159Z,22.20
2017-11-29T12:41:33.867Z,21.27
2017-11-29T12:44:01.523Z,21.57
2017-11-29T12:46:29.229Z,21.77
2017-11-29T12:49:08.839Z,22.30
2017-11-29T12:51:37.283Z,21.23
2017-11-29T12:54:05.039Z,21.87
2017-11-29T12:56:32.787Z,21.53
2017-11-29T12:59:00.455Z,20.33
2017-11-29T13:01:28.215Z,19.67
2017-11-29T13:03:55.891Z,19.20
2017-11-29T13:06:23.539Z,19.43
2017-11-29T13:08:51.271Z,20.60
2017-11-29T13:11:18.923Z,19.40
2017-11-29T13:13:46.658Z,21.13
2017-11-29T13:16:14.342Z,19.58
2017-11-29T13:18:42.074Z,22.45
2017-11-29T13:21:09.768Z,20.03
2017-11-29T13:23:37.475Z,20.27
2017-11-29T13:26:06.697Z,19.90
2017-11-29T13:28:34.419Z,23.08
2017-11-29T13:31:02.471Z,22.33
2017-11-29T13:33:30.145Z,22.00
2017-11-29T13:35:57.926Z,20.23
2017-11-29T13:38:25.636Z,22.40
2017-11-29T13:40:53.542Z,24.50
2017-11-29T13:43:21.304Z,24.58
2017-11-29T13:45:49.038Z,25.80
2017-11-29T13:48:17.034Z,21.93
2017-11-29T13:50:44.726Z,23.33
2017-11-29T13:53:12.436Z,23.07
2017-11-29T13:55:40.111Z,22.52
2017-11-29T13:58:07.796Z,24.37
2017-11-29T14:00:35.555Z,22.58
2017-11-29T14:03:03.202Z,22.50
2017-11-29T14:05:31.170Z,23.63
2017-11-29T14:07:59.678Z,23.30
2017-11-29T14:10:27.368Z,19.55
2017-11-29T14:12:55.035Z,22.03
2017-11-29T14:15:22.693Z,22.13
2017-11-29T14:17:50.986Z,23.40
2017-11-29T14:20:18.643Z,23.93
2017-11-29T14:22:46.259Z,24.17
2017-11-29T14:25:13.914Z,22.70
2017-11-29T14:27:41.653Z,22.77
2017-11-29T14:30:09.314Z,21.40
2017-11-29T14:32:36.970Z,22.60
2017-11-29T14:35:04.612Z,23.40
2017-11-29T14:37:32.283Z,23.67
2017-11-29T14:39:59.909Z,24.00
2017-11-29T14:42:27.627Z,23.00
2017-11-29T14:44:55.687Z,25.10
2017-11-29T14:47:23.448Z,27.50
2017-11-29T14:49:51.073Z,27.00
2017-11-29T14:52:19.335Z,24.90
2017-11-29T14:54:46.951Z,25.03
2017-11-29T14:57:14.566Z,27.83
2017-11-29T14:59:42.225Z,25.00
2017-11-29T15:02:09.895Z,26.03
2017-11-29T15:04:37.515Z,25.62
2017-11-29T15:07:05.924Z,24.60
2017-11-29T15:09:33.834Z,24.77
2017-11-29T15:12:01.499Z,25.17
2017-11-29T15:14:29.123Z,24.80
2017-11-29T15:16:56.907Z,24.33
2017-11-29T15:19:24.567Z,24.35
2017-11-29T15:21:52.187Z,23.73
2017-11-29T15:24:20.588Z,24.48
2017-11-29T15:26:48.209Z,26.05
2017-11-29T15:29:16.858Z,21.15
2017-11-29T15:31:44.674Z,21.25
2017-11-29T15:34:12.370Z,23.63
2017-11-29T15:36:40.075Z,23.58
2017-11-29T15:39:07.733Z,24.45
2017-11-29T15:41:35.371Z,21.92
2017-11-29T15:44:03.051Z,21.70
2017-11-29T15:46:30.752Z,24.60
2017-11-29T15:48:58.441Z,23.52
2017-11-29T15:51:26.087Z,22.33
2017-11-29T15:53:53.971Z,22.00
2017-11-29T15:56:21.638Z,24.20
2017-11-29T15:58:49.273Z,24.67
2017-11-29T16:01:16.964Z,23.47
2017-11-29T16:03:44.665Z,23.05
2017-11-29T16:06:12.353Z,22.17
2017-11-29T16:08:40.034Z,23.93
2017-11-29T16:11:07.683Z,21.95
2017-11-29T16:13:35.343Z,24.70
2017-11-29T16:16:03.060Z,22.10
2017-11-29T16:18:30.735Z,23.00
2017-11-29T16:20:58.439Z,22.37
2017-11-29T16:23:26.121Z,23.53
2017-11-29T16:25:54.539Z,22.00
2017-11-29T16:28:22.239Z,21.90
2017-11-29T16:30:49.913Z,22.60
2017-11-29T16:33:17.549Z,23.00
2017-11-29T16:35:45.222Z,22.20
2017-11-29T16:38:12.939Z,23.17
2017-11-29T16:40:40.707Z,21.30
2017-11-29T16:43:08.356Z,22.40
2017-11-29T16:45:36.031Z,22.03
2017-11-29T16:48:03.652Z,22.67
2017-11-29T16:50:31.298Z,21.10
2017-11-29T16:52:59.598Z,23.17
2017-11-29T16:55:28.058Z,18.10
2017-11-29T16:57:55.783Z,21.62
2017-11-29T17:00:23.475Z,18.10
2017-11-29T17:02:51.227Z,20.20
2017-11-29T17:05:18.865Z,20.47
2017-11-29T17:07:46.518Z,18.40
2017-11-29T17:10:14.182Z,18.27
2017-11-29T17:12:41.866Z,21.17
2017-11-29T17:15:09.539Z,21.70
2017-11-29T17:17:37.478Z,22.83
2017-11-29T17:22:55.697Z,20.58
2017-11-29T17:25:23.614Z,21.05
2017-11-29T17:27:51.371Z,20.60
2017-11-29T17:30:19.434Z,21.97
2017-11-29T17:32:47.127Z,21.80
2017-11-29T17:35:14.828Z,21.52
2017-11-29T17:37:42.647Z,23.23
2017-11-29T17:40:10.430Z,25.43
2017-11-29T17:42:38.807Z,24.60
2017-11-29T17:45:06.462Z,25.30
2017-11-29T17:47:34.095Z,23.53
2017-11-29T17:50:02.458Z,22.75
2017-11-29T17:52:30.856Z,23.10
2017-11-29T17:54:58.715Z,21.53
2017-11-29T17:57:26.402Z,21.40
2017-11-29T17:59:54.238Z,21.23
2017-11-29T18:02:22.244Z,21.15
2017-11-29T18:04:54.000Z,20.08
2017-11-29T18:07:24.908Z,23.02
2017-11-29T18:09:52.889Z,22.57
2017-11-29T18:12:23.690Z,20.97
2017-11-29T18:14:51.788Z,21.50
2017-11-29T18:17:19.534Z,18.37
2017-11-29T18:19:47.316Z,20.63
2017-11-29T18:22:16.162Z,18.77
2017-11-29T18:24:44.070Z,18.40
2017-11-29T18:27:11.736Z,19.70
2017-11-29T18:29:39.682Z,20.53
2017-11-29T18:32:07.391Z,21.30
2017-11-29T18:34:35.828Z,20.67
2017-11-29T18:37:03.582Z,19.70
2017-11-29T18:39:31.377Z,22.47
2017-11-29T18:41:59.360Z,20.25
2017-11-29T18:44:28.991Z,20.60
2017-11-29T18:46:56.796Z,24.13
2017-11-29T18:49:24.451Z,19.50
2017-11-29T18:51:52.227Z,22.00
2017-11-29T18:54:20.073Z,22.00
2017-11-29T18:56:47.838Z,21.80
2017-11-29T18:59:15.498Z,20.77
2017-11-29T19:01:43.362Z,21.90
2017-11-29T19:04:11.137Z,22.13
2017-11-29T19:06:38.821Z,22.90
2017-11-29T19:09:06.563Z,22.80
2017-11-29T19:11:34.240Z,22.40
2017-11-29T19:14:01.984Z,23.95
2017-11-29T19:16:31.178Z,23.15
2017-11-29T19:18:59.546Z,22.60
2017-11-29T19:21:27.251Z,23.63
2017-11-29T19:23:55.383Z,22.60
2017-11-29T19:26:23.103Z,24.30
2017-11-29T19:28:50.837Z,23.43
2017-11-29T19:31:18.571Z,23.77
2017-11-29T19:33:46.224Z,24.80
2017-11-29T19:36:13.882Z,24.37
2017-11-29T19:38:42.446Z,22.57
2017-11-29T19:41:10.150Z,22.80
2017-11-29T19:43:38.013Z,27.20
2017-11-29T19:46:05.857Z,25.27
2017-11-29T19:48:39.356Z,25.20
2017-11-29T19:51:07.352Z,26.37
2017-11-29T19:53:38.217Z,24.90
2017-11-29T19:56:06.124Z,24.60
2017-11-29T19:58:34.139Z,23.67
2017-11-29T20:01:02.579Z,23.70
2017-11-29T20:03:30.647Z,24.60
2017-11-29T20:05:58.471Z,24.00
2017-11-29T20:08:26.215Z,24.30
2017-11-29T20:10:53.877Z,22.47
2017-11-29T20:13:22.390Z,23.97
2017-11-29T20:15:50.304Z,21.37
2017-11-29T20:18:18.143Z,22.47
2017-11-29T20:20:45.902Z,22.63
2017-11-29T20:23:14.543Z,26.63
2017-11-29T20:25:42.656Z,22.85
2017-11-29T20:28:10.285Z,24.35
2017-11-29T20:30:38.618Z,22.57
2017-11-29T20:33:06.255Z,23.83
2017-11-29T20:35:34.235Z,23.10
2017-11-29T20:38:01.934Z,22.60
2017-11-29T20:40:30.425Z,21.92
2017-11-29T20:42:58.107Z,24.77
2017-11-29T20:45:25.987Z,24.53
2017-11-29T20:47:53.980Z,26.83
2017-11-29T20:50:22.139Z,23.63
2017-11-29T20:52:55.688Z,22.02
2017-11-29T20:55:23.421Z,23.87
2017-11-29T20:57:51.863Z,23.35
2017-11-29T21:00:19.646Z,20.98
2017-11-29T21:02:47.323Z,21.80
2017-11-29T21:05:15.771Z,20.00
2017-11-29T21:07:43.471Z,20.70
2017-11-29T21:10:12.136Z,18.85
2017-11-29T21:12:39.830Z,20.50
2017-11-29T21:15:07.502Z,19.37
2017-11-29T21:17:35.419Z,20.10
2017-11-29T21:20:03.270Z,20.37
2017-11-29T21:22:31.255Z,20.57
2017-11-29T21:24:59.105Z,22.20
2017-11-29T21:27:26.803Z,20.30
2017-11-29T21:29:55.199Z,21.80
2017-11-29T21:32:22.924Z,20.23
2017-11-29T21:34:50.596Z,22.83
2017-11-29T21:37:18.223Z,22.83
2017-11-29T21:39:45.910Z,25.40
2017-11-29T21:42:14.671Z,24.73
2017-11-29T21:44:42.373Z,24.97
2017-11-29T21:47:11.375Z,26.40
2017-11-29T21:49:39.759Z,25.03
2017-11-29T21:52:07.478Z,27.25
2017-11-29T21:54:35.175Z,26.33
2017-11-29T21:57:03.010Z,25.03
2017-11-29T21:59:30.855Z,28.10
2017-11-29T22:01:58.625Z,25.25
2017-11-29T22:04:28.043Z,25.27
2017-11-29T22:06:55.715Z,26.73
2017-11-29T22:09:24.736Z,26.13
2017-11-29T22:11:52.690Z,27.93
2017-11-29T22:14:21.120Z,27.50
2017-11-29T22:16:48.797Z,27.00
2017-11-29T22:19:16.643Z,29.23
2017-11-29T22:21:44.297Z,28.83
2017-11-29T22:24:12.169Z,28.73
2017-11-29T22:26:39.931Z,30.73
2017-11-29T22:29:07.697Z,29.45
2017-11-29T22:31:35.548Z,28.83
2017-11-29T22:34:03.184Z,33.13
2017-11-29T22:36:31.084Z,32.90
2017-11-29T22:38:59.075Z,31.77
2017-11-29T22:41:26.750Z,29.60
2017-11-29T22:43:54.606Z,30.47
2017-11-29T22:46:22.444Z,31.03
2017-11-29T22:48:50.205Z,33.50
2017-11-29T22:51:17.876Z,29.87
2017-11-29T22:53:45.717Z,32.57
2017-11-29T22:56:13.364Z,28.33
2017-11-29T22:58:41.003Z,27.70
2017-11-29T23:01:08.783Z,31.30
2017-11-29T23:03:36.419Z,27.17
2017-11-29T23:06:05.170Z,26.77
2017-11-29T23:08:33.148Z,27.92
2017-11-29T23:11:00.988Z,27.53
2017-11-29T23:13:28.699Z,25.83
2017-11-29T23:15:57.261Z,26.40
2017-11-29T23:18:26.391Z,25.30
2017-11-29T23:20:54.099Z,24.27
2017-11-29T23:23:22.068Z,23.73
2017-11-29T23:25:50.059Z,23.25
2017-11-29T23:28:17.712Z,24.77
2017-11-29T23:30:45.553Z,24.05
2017-11-29T23:33:13.202Z,24.60
2017-11-29T23:35:41.079Z,24.10
2017-11-29T23:38:08.843Z,28.95
2017-11-29T23:40:36.505Z,26.90
2017-11-29T23:43:04.367Z,26.27
2017-11-29T23:45:32.095Z,29.33
2017-11-29T23:48:00.776Z,28.20
2017-11-29T23:50:28.405Z,29.67
2017-11-29T23:52:56.091Z,29.93
2017-11-29T23:55:23.732Z,29.23
2017-11-29T23:57:52.201Z,29.30
